Time;durP1;ratioP1;P1;durP2;ratioP2;P2;SDS_P1;SDS_P2;PMS_P1;PMS_P2;Temp;Humidity;BMP_temperature;BMP_pressure;BME280_temperature;BME280_humidity;BME280_pressure;Samples;Min_cycle;Max_cycle;Signal;HPM_P1;HPM_P2
2021/03/21 00:02:23;;;;;;;7.68;4.95;;;6.10;80.50;;;;;;5074688;28;20195;-45
2021/03/21 00:04:49;;;;;;;6.93;4.60;;;5.90;80.60;;;;;;5083072;28;20199;-46
2021/03/21 00:07:15;;;;;;;7.03;4.97;;;6.00;80.60;;;;;;5076199;28;20215;-46
2021/03/21 00:09:41;;;;;;;7.15;4.25;;;5.70;80.50;;;;;;5074811;28;20844;-46
2021/03/21 00:12:09;;;;;;;7.53;4.45;;;6.20;80.90;;;;;;5074411;28;20202;-46
2021/03/21 00:14:35;;;;;;;8.00;4.83;;;6.20;81.10;;;;;;5074057;28;20575;-45
2021/03/21 00:17:03;;;;;;;7.32;4.88;;;5.50;80.40;;;;;;5074471;28;20449;-46
2021/03/21 00:19:29;;;;;;;7.97;4.97;;;6.10;81.40;;;;;;5074239;28;20288;-46
2021/03/21 00:21:55;;;;;;;8.00;6.20;;;6.10;82.00;;;;;;5072913;28;21022;-46
2021/03/21 00:24:22;;;;;;;6.40;5.10;;;5.70;81.40;;;;;;5073999;28;20195;-46
2021/03/21 00:26:48;;;;;;;6.57;5.72;;;5.90;82.80;;;;;;5074288;28;20465;-46
2021/03/21 00:29:14;;;;;;;9.10;5.67;;;6.10;83.60;;;;;;5074038;28;20191;-45
2021/03/21 00:31:41;;;;;;;6.47;5.10;;;5.70;84.10;;;;;;5073955;28;20437;-45
2021/03/21 00:34:08;;;;;;;8.25;5.40;;;5.90;85.10;;;;;;5073803;28;20582;-46
2021/03/21 00:36:34;;;;;;;6.90;4.95;;;5.70;85.00;;;;;;5073873;28;20247;-46
2021/03/21 00:39:00;;;;;;;6.13;5.37;;;5.80;84.90;;;;;;5072638;28;20210;-46
2021/03/21 00:41:30;;;;;;;6.32;5.43;;;6.10;86.20;;;;;;5073780;28;20759;-46
2021/03/21 00:43:57;;;;;;;6.20;5.28;;;6.10;86.50;;;;;;5073241;28;20191;-46
2021/03/21 00:46:25;;;;;;;7.70;5.85;;;6.00;86.60;;;;;;5073605;28;20631;-46
2021/03/21 00:48:52;;;;;;;8.13;5.80;;;6.00;86.80;;;;;;5073781;28;20568;-46
2021/03/21 00:51:19;;;;;;;6.90;5.50;;;5.60;86.60;;;;;;5073537;28;20433;-47
2021/03/21 00:53:46;;;;;;;5.87;5.27;;;6.00;87.60;;;;;;5073190;28;20244;-46
2021/03/21 00:56:26;;;;;;;9.38;5.63;;;5.80;87.90;;;;;;5073105;28;20475;-46
2021/03/21 00:58:54;;;;;;;12.18;6.15;;;6.20;90.00;;;;;;5073285;28;20598;-46
2021/03/21 01:01:20;;;;;;;8.35;6.40;;;6.10;90.90;;;;;;5073730;28;20226;-46
2021/03/21 01:03:47;;;;;;;9.93;6.80;;;6.20;91.40;;;;;;5073018;28;20199;-45
2021/03/21 01:06:13;;;;;;;7.63;6.80;;;6.10;91.90;;;;;;5073352;28;20223;-44
2021/03/21 01:08:40;;;;;;;7.00;6.30;;;6.00;92.40;;;;;;5073593;28;20210;-46
2021/03/21 01:11:10;;;;;;;8.97;7.10;;;6.10;92.80;;;;;;5073407;28;20702;-45
2021/03/21 01:13:36;;;;;;;8.88;6.80;;;6.00;93.30;;;;;;5072829;28;20465;-45
2021/03/21 01:16:04;;;;;;;8.20;6.75;;;6.20;94.00;;;;;;5072868;28;20682;-45
2021/03/21 01:18:32;;;;;;;10.70;7.27;;;6.10;94.50;;;;;;5073034;28;20206;-45
2021/03/21 01:20:59;;;;;;;8.30;7.20;;;5.80;96.30;;;;;;5073093;28;20491;-45
2021/03/21 01:23:26;;;;;;;9.55;7.82;;;5.60;96.60;;;;;;5072729;28;20191;-45
2021/03/21 01:25:54;;;;;;;11.85;7.60;;;6.00;97.00;;;;;;5072794;28;20243;-45
2021/03/21 01:28:23;;;;;;;8.77;7.07;;;5.80;97.00;;;;;;5073010;28;20230;-45
2021/03/21 01:30:50;;;;;;;8.60;7.25;;;5.80;97.30;;;;;;5071457;28;20615;-45
2021/03/21 01:33:18;;;;;;;12.02;7.93;;;6.10;97.70;;;;;;5072745;28;20770;-44
2021/03/21 01:35:44;;;;;;;10.80;8.60;;;5.90;98.40;;;;;;5072709;28;20235;-44
2021/03/21 01:38:11;;;;;;;9.45;7.82;;;6.10;98.60;;;;;;5072612;28;20966;-44
2021/03/21 01:40:38;;;;;;;9.15;8.13;;;6.10;99.20;;;;;;5072572;28;20195;-44
2021/03/21 01:43:05;;;;;;;10.60;8.40;;;5.80;99.60;;;;;;5072113;28;20196;-44
2021/03/21 01:45:36;;;;;;;8.50;7.70;;;6.10;99.90;;;;;;5072267;28;20251;-44
2021/03/21 01:48:06;;;;;;;11.50;7.73;;;6.10;99.90;;;;;;5072520;28;20198;-44
2021/03/21 01:50:39;;;;;;;10.35;8.38;;;6.00;99.90;;;;;;5072512;28;20464;-44
2021/03/21 01:53:07;;;;;;;12.82;8.57;;;6.10;99.90;;;;;;5072064;28;20680;-45
2021/03/21 01:55:34;;;;;;;12.65;9.43;;;5.50;99.90;;;;;;5072869;28;20222;-45
2021/03/21 01:58:00;;;;;;;12.75;9.43;;;5.60;99.90;;;;;;5073197;28;20199;-43
2021/03/21 02:00:28;;;;;;;11.95;9.23;;;5.70;99.90;;;;;;5072746;28;20191;-44
2021/03/21 02:02:54;;;;;;;12.40;8.98;;;6.00;99.90;;;;;;5071968;28;20548;-45
2021/03/21 02:05:20;;;;;;;11.95;9.85;;;5.90;99.90;;;;;;5071980;28;20219;-45
2021/03/21 02:08:03;;;;;;;10.63;8.67;;;6.00;99.90;;;;;;5071272;28;20199;-44
2021/03/21 02:10:40;;;;;;;12.10;9.05;;;6.10;99.90;;;;;;5071970;28;20926;-44
2021/03/21 02:13:11;;;;;;;11.70;9.77;;;5.50;99.90;;;;;;5071831;28;20218;-44
2021/03/21 02:15:48;;;;;;;12.20;9.60;;;5.90;99.90;;;;;;5072316;28;20449;-45
2021/03/21 02:18:27;;;;;;;14.70;10.43;;;6.00;99.90;;;;;;5072261;28;20433;-44
2021/03/21 02:21:18;;;;;;;12.27;10.88;;;5.90;99.90;;;;;;5071885;28;20203;-45
2021/03/21 02:24:20;;;;;;;13.03;9.50;;;5.80;99.90;;;;;;5071808;28;20198;-46
2021/03/21 02:27:05;;;;;;;11.90;10.20;;;5.80;99.90;;;;;;5064916;28;20457;-45
2021/03/21 02:29:53;;;;;;;12.50;11.17;;;5.80;99.90;;;;;;5071715;28;20195;-45
2021/03/21 02:32:24;;;;;;;11.90;10.60;;;5.90;99.90;;;;;;5071463;28;20507;-45
2021/03/21 02:35:10;;;;;;;13.40;9.90;;;5.70;99.90;;;;;;5071640;28;20560;-45
2021/03/21 02:37:43;;;;;;;14.43;11.48;;;5.70;99.90;;;;;;5071249;28;20499;-45
2021/03/21 02:40:20;;;;;;;12.63;10.90;;;5.60;99.90;;;;;;5071413;28;20203;-45
2021/03/21 02:42:51;;;;;;;16.13;11.95;;;5.90;99.90;;;;;;5071463;28;20741;-45
2021/03/21 02:45:21;;;;;;;16.83;12.07;;;5.80;99.90;;;;;;5071654;28;20278;-45
2021/03/21 02:47:49;;;;;;;13.50;11.45;;;5.10;99.90;;;;;;5070593;28;20245;-45
2021/03/21 02:50:20;;;;;;;14.60;12.10;;;5.70;99.90;;;;;;5071653;28;20199;-45
2021/03/21 02:52:51;;;;;;;15.15;11.13;;;5.90;99.90;;;;;;5071027;28;20429;-45
2021/03/21 02:55:23;;;;;;;14.85;12.13;;;5.50;99.90;;;;;;5071323;28;20218;-46
2021/03/21 02:57:54;;;;;;;15.23;10.60;;;5.70;99.90;;;;;;5071660;28;20211;-45
2021/03/21 03:00:26;;;;;;;13.27;11.68;;;5.80;99.90;;;;;;5071399;28;20660;-45
2021/03/21 03:02:54;;;;;;;16.02;11.30;;;6.00;99.90;;;;;;5071317;28;20371;-45
2021/03/21 03:05:26;;;;;;;15.52;11.95;;;5.70;99.90;;;;;;5071639;28;20621;-46
2021/03/21 03:07:56;;;;;;;15.43;11.48;;;5.90;99.90;;;;;;5071369;28;20580;-46
2021/03/21 03:10:29;;;;;;;14.82;11.65;;;5.60;99.90;;;;;;5071055;28;20690;-45
2021/03/21 03:13:06;;;;;;;13.23;11.00;;;5.90;99.90;;;;;;5071039;28;20207;-45
2021/03/21 03:15:33;;;;;;;13.05;9.90;;;6.00;99.90;;;;;;5071234;28;20777;-46
2021/03/21 03:18:07;;;;;;;13.70;10.40;;;6.00;99.90;;;;;;5071297;28;20271;-46
2021/03/21 03:20:38;;;;;;;14.00;11.52;;;5.90;99.90;;;;;;5074610;28;20445;-45
2021/03/21 03:23:14;;;;;;;12.68;10.10;;;6.00;99.90;;;;;;5075310;28;20191;-45
2021/03/21 03:25:49;;;;;;;13.90;9.52;;;5.80;99.90;;;;;;5075010;28;20218;-45
2021/03/21 03:28:23;;;;;;;13.07;10.98;;;6.00;99.90;;;;;;5075200;28;20663;-44
2021/03/21 03:30:54;;;;;;;12.93;10.80;;;5.70;99.90;;;;;;5075213;28;20191;-45
2021/03/21 03:33:23;;;;;;;12.10;10.13;;;5.90;99.90;;;;;;5073347;28;20272;-46
2021/03/21 03:35:50;;;;;;;13.15;10.80;;;5.90;99.90;;;;;;5074824;28;20225;-45
2021/03/21 03:38:17;;;;;;;12.55;10.50;;;6.10;99.90;;;;;;5073557;28;20199;-46
2021/03/21 03:40:45;;;;;;;12.55;10.27;;;5.80;99.90;;;;;;5074613;28;20671;-46
2021/03/21 03:43:22;;;;;;;14.15;9.82;;;5.90;99.90;;;;;;5074376;28;20183;-46
2021/03/21 03:45:57;;;;;;;10.77;9.57;;;6.00;99.90;;;;;;5074201;28;20216;-46
2021/03/21 03:48:37;;;;;;;11.47;10.00;;;6.10;99.90;;;;;;5073388;28;20444;-46
2021/03/21 03:51:10;;;;;;;12.82;10.77;;;5.90;99.90;;;;;;5074357;28;20442;-46
2021/03/21 03:53:48;;;;;;;12.63;9.88;;;6.10;99.90;;;;;;5074259;28;20219;-46
2021/03/21 03:56:19;;;;;;;11.50;9.80;;;5.90;99.90;;;;;;5074651;28;20314;-46
2021/03/21 03:58:54;;;;;;;12.07;10.60;;;6.00;99.90;;;;;;5074565;28;20949;-46
2021/03/21 04:01:31;;;;;;;12.07;10.60;;;6.00;99.90;;;;;;5074756;28;20199;-46
2021/03/21 04:04:01;;;;;;;11.40;9.70;;;5.80;99.90;;;;;;5075303;28;20218;-45
2021/03/21 04:06:35;;;;;;;11.07;9.50;;;6.10;99.90;;;;;;5075113;28;20504;-46
2021/03/21 04:09:15;;;;;;;11.75;10.10;;;6.10;99.90;;;;;;5074682;28;20434;-45
2021/03/21 04:11:46;;;;;;;14.75;10.23;;;6.10;99.90;;;;;;5074530;28;20280;-46
2021/03/21 04:14:18;;;;;;;11.10;8.93;;;6.00;99.90;;;;;;5074132;28;20253;-45
2021/03/21 04:16:50;;;;;;;9.32;8.15;;;6.10;99.90;;;;;;5074323;28;20233;-45
2021/03/21 04:19:20;;;;;;;12.90;9.75;;;5.90;99.90;;;;;;5074230;28;20203;-45
2021/03/21 04:21:52;;;;;;;11.23;8.55;;;6.20;99.90;;;;;;5074029;28;20226;-46
2021/03/21 04:24:24;;;;;;;11.77;9.30;;;6.20;99.90;;;;;;5073765;28;20225;-45
2021/03/21 04:26:54;;;;;;;9.30;8.18;;;6.10;99.90;;;;;;5073898;28;20257;-46
2021/03/21 04:29:24;;;;;;;11.38;7.72;;;5.80;99.90;;;;;;5073930;28;20191;-46
2021/03/21 04:31:55;;;;;;;8.80;7.63;;;6.40;99.90;;;;;;5072921;28;20225;-46
2021/03/21 04:34:24;;;;;;;12.35;8.05;;;6.40;99.90;;;;;;5074107;28;20306;-46
2021/03/21 04:36:52;;;;;;;8.80;7.60;;;6.20;99.90;;;;;;5073752;28;20242;-44
2021/03/21 04:39:22;;;;;;;11.67;8.70;;;6.10;99.90;;;;;;5074007;28;20565;-44
2021/03/21 04:41:51;;;;;;;10.67;8.13;;;6.20;99.90;;;;;;5073981;28;20427;-44
2021/03/21 04:44:20;;;;;;;9.57;7.50;;;6.40;99.90;;;;;;5074305;28;20426;-44
2021/03/21 04:46:52;;;;;;;8.30;7.00;;;6.50;99.90;;;;;;5076097;28;20454;-45
2021/03/21 04:49:18;;;;;;;9.50;6.90;;;6.60;99.90;;;;;;5072541;28;20484;-45
2021/03/21 04:51:47;;;;;;;7.43;5.80;;;6.40;99.90;;;;;;5073745;28;20879;-45
2021/03/21 04:54:20;;;;;;;9.77;6.57;;;6.30;99.90;;;;;;5073182;28;20998;-46
2021/03/21 04:56:50;;;;;;;7.03;6.30;;;6.50;99.90;;;;;;5073573;28;20310;-45
2021/03/21 04:59:22;;;;;;;8.90;7.30;;;6.10;99.90;;;;;;5073231;28;20883;-46
2021/03/21 05:02:00;;;;;;;9.47;6.67;;;6.30;99.90;;;;;;5072155;28;20481;-45
2021/03/21 05:04:31;;;;;;;7.37;6.57;;;6.30;99.90;;;;;;5072898;28;20907;-45
2021/03/21 05:07:01;;;;;;;7.90;6.55;;;6.20;99.90;;;;;;5073163;28;20459;-46
2021/03/21 05:09:33;;;;;;;6.90;5.63;;;5.90;99.90;;;;;;5073083;28;20204;-45
2021/03/21 05:12:05;;;;;;;8.20;6.40;;;6.30;99.90;;;;;;5071537;28;20303;-46
2021/03/21 05:14:35;;;;;;;10.60;7.53;;;6.40;99.90;;;;;;5072778;28;21001;-46
2021/03/21 05:17:14;;;;;;;8.33;6.70;;;6.40;99.90;;;;;;5071735;28;20228;-45
2021/03/21 05:19:51;;;;;;;11.95;7.00;;;6.30;99.90;;;;;;5073402;28;20452;-45
2021/03/21 05:22:37;;;;;;;8.13;6.65;;;6.60;99.90;;;;;;5072946;28;20219;-46
2021/03/21 05:25:12;;;;;;;6.93;5.67;;;6.40;99.90;;;;;;5072775;28;20188;-45
2021/03/21 05:27:42;;;;;;;11.67;5.87;;;6.50;99.90;;;;;;5072842;28;20443;-45
2021/03/21 05:30:13;;;;;;;6.77;6.00;;;6.20;99.90;;;;;;5072675;28;20425;-45
2021/03/21 05:32:41;;;;;;;7.37;6.00;;;6.30;99.90;;;;;;5072324;28;20442;-45
2021/03/21 05:35:08;;;;;;;8.30;7.33;;;6.40;99.90;;;;;;5072458;28;20581;-45
2021/03/21 05:37:48;;;;;;;8.27;7.47;;;6.30;99.90;;;;;;5072582;28;20466;-45
2021/03/21 05:40:50;;;;;;;6.80;6.13;;;6.30;99.90;;;;;;5072159;28;20450;-46
2021/03/21 05:43:52;;;;;;;7.83;7.00;;;6.50;99.90;;;;;;5072264;28;20396;-45
2021/03/21 05:46:53;;;;;;;8.90;7.07;;;6.40;99.90;;;;;;5033897;28;21005;-45
2021/03/21 05:49:47;;;;;;;7.17;6.47;;;6.40;99.90;;;;;;5072388;28;20628;-45
2021/03/21 05:52:42;;;;;;;9.73;6.80;;;6.60;99.90;;;;;;5072699;28;20491;-45
2021/03/21 05:55:37;;;;;;;9.20;6.77;;;6.50;99.90;;;;;;5067510;28;20489;-45
2021/03/21 05:58:43;;;;;;;6.10;5.20;;;6.40;99.90;;;;;;5071472;28;20526;-46
2021/03/21 06:01:39;;;;;;;6.80;5.10;;;6.50;99.90;;;;;;5071928;28;20514;-45
2021/03/21 06:04:48;;;;;;;5.90;4.40;;;6.70;99.90;;;;;;5070839;28;20474;-45
2021/03/21 06:07:44;;;;;;;5.30;4.40;;;7.00;99.90;;;;;;5071685;28;20477;-45
2021/03/21 06:10:39;;;;;;;4.53;4.13;;;6.80;99.90;;;;;;5071992;28;20470;-46
2021/03/21 06:13:21;;;;;;;5.80;5.20;;;6.90;99.90;;;;;;5060267;28;20450;-46
2021/03/21 06:16:23;;;;;;;6.10;5.00;;;6.60;99.90;;;;;;5071732;28;20457;-45
2021/03/21 06:19:13;;;;;;;5.00;4.50;;;6.80;99.90;;;;;;5072292;28;20863;-44
2021/03/21 06:22:12;;;;;;;5.97;5.17;;;6.70;99.90;;;;;;5068389;28;20445;-45
2021/03/21 06:25:00;;;;;;;5.67;5.10;;;6.60;99.90;;;;;;5071336;28;20879;-45
2021/03/21 06:27:55;;;;;;;6.23;4.00;;;6.80;99.90;;;;;;5068071;28;20453;-45
2021/03/21 06:30:42;;;;;;;6.60;5.40;;;6.80;99.90;;;;;;5071777;28;20516;-45
2021/03/21 06:33:25;;;;;;;7.70;6.67;;;6.90;99.90;;;;;;5071354;28;20447;-45
2021/03/21 06:36:05;;;;;;;9.97;8.13;;;7.00;99.90;;;;;;5071413;28;20910;-44
2021/03/21 06:38:49;;;;;;;9.40;7.57;;;6.70;99.90;;;;;;5071590;28;20433;-45
2021/03/21 06:41:41;;;;;;;10.30;8.67;;;6.90;99.90;;;;;;5071292;28;20495;-44
2021/03/21 06:44:34;;;;;;;11.60;10.00;;;6.80;99.90;;;;;;5071183;28;20435;-45
2021/03/21 06:47:23;;;;;;;13.00;11.70;;;7.10;99.90;;;;;;5071291;28;20526;-45
2021/03/21 06:50:20;;;;;;;12.60;11.40;;;6.80;99.90;;;;;;5071509;28;20435;-45
2021/03/21 06:52:53;;;;;;;11.70;10.50;;;6.90;99.90;;;;;;5069896;28;20530;-46
2021/03/21 06:55:31;;;;;;;12.43;11.07;;;6.80;99.90;;;;;;5069350;28;20455;-46
2021/03/21 06:58:39;;;;;;;12.53;11.33;;;6.90;99.90;;;;;;5071227;28;20493;-45
2021/03/21 07:01:20;;;;;;;13.33;11.13;;;6.90;99.90;;;;;;5071368;28;20446;-49
2021/03/21 07:04:18;;;;;;;10.63;9.53;;;7.00;99.90;;;;;;5069607;28;20470;-43
2021/03/21 07:07:42;;;;;;;12.27;11.07;;;7.10;99.90;;;;;;5069681;28;20488;-43
2021/03/21 07:10:55;;;;;;;11.30;10.10;;;7.00;99.90;;;;;;5071157;28;20461;-45
2021/03/21 07:14:01;;;;;;;12.07;10.90;;;7.00;99.90;;;;;;5070808;28;20612;-44
2021/03/21 07:16:58;;;;;;;12.60;11.30;;;7.10;99.90;;;;;;5070981;28;20483;-44
2021/03/21 07:20:17;;;;;;;11.50;10.40;;;7.40;99.90;;;;;;5070973;28;20917;-44
2021/03/21 07:23:33;;;;;;;10.23;9.23;;;7.30;99.90;;;;;;5070588;28;20487;-45
2021/03/21 07:26:19;;;;;;;9.73;8.73;;;7.00;99.90;;;;;;5071380;28;20461;-45
2021/03/21 07:29:16;;;;;;;9.50;8.30;;;7.40;99.90;;;;;;5070867;28;20438;-45
2021/03/21 07:32:00;;;;;;;9.23;8.33;;;7.30;99.90;;;;;;5071038;28;20432;-44
2021/03/21 07:34:57;;;;;;;9.37;8.37;;;7.20;99.90;;;;;;5070700;28;20679;-44
2021/03/21 07:37:31;;;;;;;7.93;7.03;;;7.10;99.90;;;;;;5067259;28;20451;-44
2021/03/21 07:40:14;;;;;;;6.70;6.00;;;6.60;99.90;;;;;;5070928;28;20839;-44
2021/03/21 07:43:04;;;;;;;8.90;5.00;;;7.10;99.90;;;;;;5070598;28;20479;-44
2021/03/21 07:45:53;;;;;;;5.97;3.80;;;7.30;99.90;;;;;;5070824;28;20451;-43
2021/03/21 07:48:42;;;;;;;4.13;3.20;;;7.40;99.90;;;;;;5071244;28;20610;-45
2021/03/21 07:51:17;;;;;;;5.63;2.80;;;7.30;99.90;;;;;;5070933;28;20410;-42
2021/03/21 07:53:55;;;;;;;3.90;3.10;;;7.30;99.90;;;;;;5070571;28;20503;-43
2021/03/21 07:56:28;;;;;;;3.63;2.67;;;7.70;99.90;;;;;;5070865;28;20447;-44
2021/03/21 07:58:58;;;;;;;4.77;3.30;;;7.80;99.90;;;;;;5069633;28;20580;-44
2021/03/21 08:01:26;;;;;;;3.80;2.80;;;7.20;99.90;;;;;;5069824;28;20451;-44
2021/03/21 08:03:58;;;;;;;5.60;3.03;;;7.60;99.90;;;;;;5070867;28;20513;-44
2021/03/21 08:06:32;;;;;;;3.53;2.40;;;8.00;99.90;;;;;;5072117;28;20434;-44
2021/03/21 08:09:07;;;;;;;2.33;2.13;;;7.90;99.90;;;;;;5074397;28;20435;-45
2021/03/21 08:11:37;;;;;;;2.40;2.00;;;8.10;99.90;;;;;;5074904;28;20402;-43
2021/03/21 08:14:13;;;;;;;3.00;2.50;;;7.90;99.90;;;;;;5073693;28;20998;-44
2021/03/21 08:16:44;;;;;;;3.83;2.67;;;8.00;99.90;;;;;;5074630;28;20455;-44
2021/03/21 08:19:15;;;;;;;2.93;2.00;;;8.00;99.90;;;;;;5074343;28;20795;-43
2021/03/21 08:21:42;;;;;;;3.17;1.80;;;7.90;99.90;;;;;;5074650;28;20819;-44
2021/03/21 08:24:15;;;;;;;2.67;2.00;;;7.80;99.90;;;;;;5074614;28;20427;-45
2021/03/21 08:26:43;;;;;;;5.03;1.90;;;8.30;99.90;;;;;;5075155;28;20555;-44
2021/03/21 08:29:11;;;;;;;2.40;2.00;;;8.20;99.90;;;;;;5074325;28;20744;-43
2021/03/21 08:31:41;;;;;;;2.63;1.93;;;8.40;99.90;;;;;;5074790;28;20435;-43
2021/03/21 08:34:35;;;;;;;2.30;1.73;;;7.70;99.90;;;;;;5076398;28;20575;-44
2021/03/21 08:37:11;;;;;;;2.37;2.03;;;8.20;99.90;;;;;;5074702;28;20451;-44
2021/03/21 08:39:43;;;;;;;1.70;1.50;;;8.40;99.90;;;;;;5074463;28;20444;-44
2021/03/21 08:42:27;;;;;;;6.50;2.20;;;8.30;99.90;;;;;;5074708;28;20442;-44
2021/03/21 08:45:16;;;;;;;2.23;1.77;;;8.00;99.90;;;;;;5075418;28;20486;-44
2021/03/21 08:47:43;;;;;;;3.77;1.90;;;8.00;99.90;;;;;;5070852;28;20902;-43
2021/03/21 08:50:31;;;;;;;2.03;1.70;;;7.90;99.90;;;;;;5075400;28;20440;-43
2021/03/21 08:52:57;;;;;;;2.40;1.70;;;8.10;99.90;;;;;;5075472;28;20442;-45
2021/03/21 08:55:27;;;;;;;4.10;2.00;;;7.90;99.90;;;;;;5075894;28;20907;-45
2021/03/21 08:57:54;;;;;;;2.60;2.07;;;7.90;99.90;;;;;;5075808;28;20441;-44
2021/03/21 09:00:32;;;;;;;7.80;2.03;;;7.90;99.90;;;;;;5075258;28;20406;-44
2021/03/21 09:02:58;;;;;;;4.73;2.50;;;8.00;99.90;;;;;;5076384;28;20450;-43
2021/03/21 09:05:26;;;;;;;3.47;2.10;;;8.00;99.90;;;;;;5091462;22;20464;-48
2021/03/21 09:08:05;;;;;;;3.63;2.10;;;7.90;99.90;;;;;;5067472;28;20431;-48
2021/03/21 09:10:34;;;;;;;10.07;2.70;;;8.10;99.90;;;;;;5053250;28;20437;-49
2021/03/21 09:13:19;;;;;;;5.50;2.30;;;8.00;99.90;;;;;;5053052;28;20471;-48
2021/03/21 09:15:47;;;;;;;4.70;2.73;;;8.00;99.90;;;;;;5053094;28;20455;-48
2021/03/21 09:18:28;;;;;;;10.20;3.20;;;8.10;99.90;;;;;;5052492;28;20568;-50
2021/03/21 09:21:15;;;;;;;6.30;2.87;;;8.00;99.90;;;;;;5052738;28;20444;-50
2021/03/21 09:23:45;;;;;;;7.67;2.40;;;7.90;99.90;;;;;;5052784;28;20472;-50
2021/03/21 09:26:32;;;;;;;6.17;2.80;;;8.10;99.90;;;;;;5053064;28;20430;-49
2021/03/21 09:29:01;;;;;;;6.80;2.60;;;8.30;99.90;;;;;;5052808;28;20538;-50
2021/03/21 09:31:29;;;;;;;7.60;2.80;;;7.90;99.90;;;;;;5052943;28;20480;-50
2021/03/21 09:34:02;;;;;;;7.60;3.20;;;8.40;99.90;;;;;;5052519;28;20528;-50
2021/03/21 09:36:34;;;;;;;7.13;3.10;;;7.70;99.90;;;;;;5052871;28;20449;-49
2021/03/21 09:39:04;;;;;;;9.63;2.97;;;8.10;99.90;;;;;;5053041;28;20472;-50
2021/03/21 09:41:31;;;;;;;5.00;2.50;;;8.00;99.90;;;;;;5052830;28;20539;-49
2021/03/21 09:44:05;;;;;;;11.17;3.60;;;8.20;99.90;;;;;;5052228;28;20525;-50
2021/03/21 09:46:45;;;;;;;10.80;3.10;;;8.20;99.90;;;;;;5052231;28;20452;-50
2021/03/21 09:49:19;;;;;;;14.73;3.50;;;8.20;99.90;;;;;;5052653;28;20465;-49
2021/03/21 09:51:57;;;;;;;7.63;2.90;;;8.10;99.90;;;;;;5052586;28;20940;-49
2021/03/21 09:54:38;;;;;;;6.33;3.50;;;8.10;99.90;;;;;;5052130;28;20977;-48
2021/03/21 09:57:45;;;;;;;6.17;2.97;;;8.30;99.90;;;;;;5052225;28;20433;-48
2021/03/21 10:00:16;;;;;;;13.47;3.77;;;7.90;99.90;;;;;;5034514;28;20416;-48
2021/03/21 10:02:45;;;;;;;10.33;3.00;;;8.30;99.90;;;;;;5052524;28;20816;-48
2021/03/21 10:05:30;;;;;;;5.73;2.87;;;8.30;99.90;;;;;;5050963;28;20938;-48
2021/03/21 10:08:08;;;;;;;6.87;2.83;;;7.90;99.90;;;;;;5051977;28;20477;-48
2021/03/21 10:10:38;;;;;;;10.73;3.30;;;8.20;99.90;;;;;;5052590;28;20421;-49
2021/03/21 10:13:05;;;;;;;6.13;2.57;;;8.10;99.90;;;;;;5052223;28;20429;-48
2021/03/21 10:15:31;;;;;;;7.60;3.00;;;8.20;99.90;;;;;;5052098;28;20822;-49
2021/03/21 10:17:59;;;;;;;14.00;3.37;;;8.10;99.90;;;;;;5052143;28;20834;-49
2021/03/21 10:21:01;;;;;;;8.10;3.20;;;8.10;99.90;;;;;;5052226;28;20592;-49
2021/03/21 10:24:12;;;;;;;11.50;2.90;;;8.30;99.90;;;;;;5052104;28;20897;-49
2021/03/21 10:27:26;;;;;;;13.13;3.20;;;8.00;99.90;;;;;;5050456;28;20878;-49
2021/03/21 10:30:13;;;;;;;9.53;3.53;;;7.90;99.90;;;;;;5051484;28;20432;-48
2021/03/21 10:32:42;;;;;;;8.53;2.83;;;8.00;99.90;;;;;;5051823;28;20799;-49
2021/03/21 10:35:29;;;;;;;12.67;3.20;;;8.00;99.90;;;;;;5051641;28;20527;-48
2021/03/21 10:37:59;;;;;;;8.07;3.57;;;8.20;99.90;;;;;;5039153;28;20938;-49
2021/03/21 10:40:39;;;;;;;10.03;3.33;;;8.00;99.90;;;;;;5052076;28;20443;-49
2021/03/21 10:43:10;;;;;;;10.23;3.30;;;8.00;99.90;;;;;;5049940;28;20432;-48
2021/03/21 10:45:49;;;;;;;9.77;3.73;;;8.10;99.90;;;;;;5051651;28;20428;-47
2021/03/21 10:48:51;;;;;;;8.47;4.03;;;8.00;99.90;;;;;;5051392;28;20486;-51
2021/03/21 10:51:17;;;;;;;18.80;4.53;;;7.70;99.90;;;;;;5051333;28;20436;-50
2021/03/21 10:54:17;;;;;;;15.90;3.57;;;7.90;99.90;;;;;;5051163;28;20472;-48
2021/03/21 10:57:03;;;;;;;13.83;4.03;;;7.70;99.90;;;;;;5050919;28;20504;-49
2021/03/21 10:59:31;;;;;;;9.93;4.07;;;7.60;99.90;;;;;;5051038;28;20465;-49
2021/03/21 11:02:21;;;;;;;11.43;4.80;;;7.70;99.90;;;;;;5051380;28;20764;-50
2021/03/21 11:05:00;;;;;;;10.00;3.80;;;7.60;99.90;;;;;;5050871;28;20411;-50
2021/03/21 11:07:27;;;;;;;11.53;4.90;;;7.70;99.90;;;;;;5050782;28;20566;-50
2021/03/21 11:09:57;;;;;;;14.07;5.03;;;7.00;99.90;;;;;;5050858;28;20441;-52
2021/03/21 11:12:36;;;;;;;9.33;4.70;;;7.50;99.90;;;;;;5050912;28;20587;-50
2021/03/21 11:15:20;;;;;;;14.43;5.20;;;6.90;99.90;;;;;;5051004;28;21005;-49
2021/03/21 11:17:47;;;;;;;11.93;4.97;;;7.60;99.90;;;;;;5050937;28;20552;-50
2021/03/21 11:20:24;;;;;;;21.00;5.80;;;7.00;99.90;;;;;;5051186;28;20920;-50
2021/03/21 11:22:50;;;;;;;16.47;5.10;;;7.50;99.90;;;;;;5050909;28;20436;-49
2021/03/21 11:25:32;;;;;;;16.27;5.70;;;7.40;99.90;;;;;;5050991;28;20914;-50
2021/03/21 11:28:00;;;;;;;16.83;4.43;;;7.20;99.90;;;;;;5051128;28;20769;-49
2021/03/21 11:30:28;;;;;;;13.00;4.40;;;7.20;99.90;;;;;;5050696;28;20427;-50
2021/03/21 11:32:57;;;;;;;20.17;5.17;;;7.10;99.90;;;;;;5050921;28;21030;-49
2021/03/21 11:35:27;;;;;;;17.43;6.73;;;7.30;99.90;;;;;;5051104;28;20480;-48
2021/03/21 11:37:56;;;;;;;21.83;8.80;;;7.20;99.90;;;;;;5050071;28;20441;-47
2021/03/21 11:40:27;;;;;;;13.33;5.07;;;7.70;99.90;;;;;;5052695;28;20429;-49
2021/03/21 11:43:08;;;;;;;16.93;5.90;;;7.70;99.90;;;;;;5055077;28;20459;-49
2021/03/21 11:45:37;;;;;;;19.37;6.43;;;7.70;99.90;;;;;;5055290;28;20800;-49
2021/03/21 11:48:28;;;;;;;21.83;7.17;;;6.90;99.90;;;;;;5053074;28;20493;-49
2021/03/21 11:50:56;;;;;;;12.73;4.83;;;7.70;99.90;;;;;;5054874;28;20514;-46
2021/03/21 11:53:27;;;;;;;16.77;6.00;;;7.70;99.90;;;;;;5054382;28;20470;-48
2021/03/21 11:55:54;;;;;;;14.23;6.30;;;7.70;99.90;;;;;;5055012;28;20501;-49
2021/03/21 11:58:27;;;;;;;21.73;6.90;;;8.00;99.90;;;;;;5054610;28;20465;-50
2021/03/21 12:00:58;;;;;;;22.20;6.23;;;7.90;99.90;;;;;;5054686;28;20807;-49
2021/03/21 12:03:26;;;;;;;14.53;5.73;;;7.40;99.90;;;;;;5054535;28;20429;-48
2021/03/21 12:06:03;;;;;;;27.77;7.20;;;8.10;99.90;;;;;;5054583;28;21041;-48
2021/03/21 12:08:39;;;;;;;20.30;7.70;;;8.30;99.90;;;;;;5054828;28;20432;-50
2021/03/21 12:11:19;;;;;;;23.20;6.20;;;8.30;99.90;;;;;;5054863;28;20436;-46
2021/03/21 12:13:45;;;;;;;23.03;6.80;;;8.40;99.90;;;;;;5053970;28;20502;-47
2021/03/21 12:16:34;;;;;;;17.23;6.27;;;8.50;99.90;;;;;;5054059;28;20460;-47
2021/03/21 12:19:05;;;;;;;25.63;6.10;;;8.70;99.90;;;;;;5054095;28;20437;-48
2021/03/21 12:21:36;;;;;;;19.63;5.57;;;8.70;99.90;;;;;;5053882;28;20527;-48
2021/03/21 12:24:06;;;;;;;15.30;5.10;;;8.60;99.90;;;;;;5053695;28;20450;-47
2021/03/21 12:26:52;;;;;;;10.90;4.87;;;8.90;99.90;;;;;;5054709;28;20446;-47
2021/03/21 12:29:43;;;;;;;17.83;6.17;;;8.90;99.90;;;;;;5053732;28;20944;-47
2021/03/21 12:32:36;;;;;;;21.83;5.87;;;8.90;99.90;;;;;;5053914;28;20441;-47
2021/03/21 12:35:07;;;;;;;23.07;5.33;;;9.20;99.90;;;;;;5053923;28;20477;-47
2021/03/21 12:37:54;;;;;;;21.10;5.67;;;8.90;99.90;;;;;;5053889;28;20441;-50
2021/03/21 12:40:30;;;;;;;16.43;5.90;;;8.90;99.90;;;;;;5053882;28;20433;-50
2021/03/21 12:42:57;;;;;;;16.93;5.50;;;9.00;99.90;;;;;;5051942;28;20452;-49
2021/03/21 12:45:25;;;;;;;24.13;6.43;;;9.20;99.90;;;;;;5053640;28;20470;-50
2021/03/21 12:48:01;;;;;;;15.30;4.30;;;9.00;99.90;;;;;;5053371;28;20435;-51
2021/03/21 12:50:40;;;;;;;17.13;5.40;;;9.00;99.90;;;;;;5053410;28;20445;-50
2021/03/21 12:53:08;;;;;;;11.27;4.77;;;9.00;99.90;;;;;;5052654;28;20437;-49
2021/03/21 12:55:35;;;;;;;17.10;4.03;;;9.70;99.90;;;;;;5053271;28;20565;-50
2021/03/21 12:58:01;;;;;;;14.13;3.80;;;9.20;99.90;;;;;;5053572;28;20861;-50
2021/03/21 13:00:29;;;;;;;12.90;3.90;;;8.40;99.90;;;;;;5053111;28;20562;-51
2021/03/21 13:02:59;;;;;;;15.30;4.60;;;9.00;99.90;;;;;;5053058;28;20428;-50
2021/03/21 13:05:28;;;;;;;13.83;4.20;;;9.20;99.90;;;;;;5052545;28;20442;-51
2021/03/21 13:07:56;;;;;;;19.33;5.27;;;9.20;99.90;;;;;;5053062;28;21023;-49
2021/03/21 13:10:23;;;;;;;13.87;4.33;;;8.60;99.90;;;;;;5053096;28;20483;-49
2021/03/21 13:12:50;;;;;;;13.90;4.23;;;9.10;99.90;;;;;;5052760;28;20400;-50
2021/03/21 13:15:18;;;;;;;11.87;3.30;;;9.10;99.90;;;;;;5053164;28;20482;-51
2021/03/21 13:17:44;;;;;;;10.33;4.33;;;9.00;99.90;;;;;;5051730;28;20510;-50
2021/03/21 13:20:15;;;;;;;14.80;4.10;;;9.10;99.90;;;;;;5053986;28;20778;-49
2021/03/21 13:22:42;;;;;;;9.00;4.23;;;9.00;99.90;;;;;;5052287;28;20443;-50
2021/03/21 13:25:12;;;;;;;9.63;2.77;;;9.70;99.90;;;;;;5052895;28;20439;-49
2021/03/21 13:27:38;;;;;;;11.73;4.33;;;9.30;99.90;;;;;;5052839;28;20421;-49
2021/03/21 13:30:06;;;;;;;12.00;3.47;;;9.40;99.90;;;;;;5053168;28;20798;-49
2021/03/21 13:32:33;;;;;;;9.63;2.30;;;9.50;99.90;;;;;;5052392;28;20433;-49
2021/03/21 13:34:59;;;;;;;5.80;2.70;;;9.80;99.90;;;;;;5052727;28;20492;-49
2021/03/21 13:37:25;;;;;;;8.50;2.40;;;9.80;99.90;;;;;;5052723;28;20450;-50